sensor_id;sensor_type;location;lat;lon;timestamp;P1;durP1;ratioP1;P2;durP2;ratioP2
45620;SDS011;31345;51.522;10.702;2024-03-25T00:02:27;6.37;;;2.63;;
45620;SDS011;31345;51.522;10.702;2024-03-25T00:04:58;3.93;;;1.60;;
45620;SDS011;31345;51.522;10.702;2024-03-25T00:07:31;2.87;;;1.37;;
45620;SDS011;31345;51.522;10.702;2024-03-25T00:10:03;2.50;;;1.50;;
45620;SDS011;31345;51.522;10.702;2024-03-25T00:12:38;3.10;;;1.73;;
45620;SDS011;31345;51.522;10.702;2024-03-25T00:15:10;3.73;;;1.40;;
45620;SDS011;31345;51.522;10.702;2024-03-25T00:17:42;4.77;;;2.00;;
45620;SDS011;31345;51.522;10.702;2024-03-25T00:20:14;7.93;;;2.27;;
45620;SDS011;31345;51.522;10.702;2024-03-25T00:22:47;6.47;;;2.53;;
45620;SDS011;31345;51.522;10.702;2024-03-25T00:25:13;3.13;;;2.07;;
45620;SDS011;31345;51.522;10.702;2024-03-25T00:27:44;7.70;;;2.60;;
45620;SDS011;31345;51.522;10.702;2024-03-25T00:30:11;5.53;;;3.10;;
45620;SDS011;31345;51.522;10.702;2024-03-25T00:32:44;6.57;;;2.37;;
45620;SDS011;31345;51.522;10.702;2024-03-25T00:35:16;7.93;;;2.00;;
45620;SDS011;31345;51.522;10.702;2024-03-25T00:37:48;6.37;;;3.37;;
45620;SDS011;31345;51.522;10.702;2024-03-25T00:40:20;4.70;;;1.90;;
45620;SDS011;31345;51.522;10.702;2024-03-25T00:42:54;5.13;;;2.50;;
45620;SDS011;31345;51.522;10.702;2024-03-25T00:45:25;3.47;;;1.73;;
45620;SDS011;31345;51.522;10.702;2024-03-25T00:47:56;6.70;;;1.90;;
45620;SDS011;31345;51.522;10.702;2024-03-25T00:50:23;3.70;;;1.90;;
45620;SDS011;31345;51.522;10.702;2024-03-25T00:52:55;3.87;;;1.83;;
45620;SDS011;31345;51.522;10.702;2024-03-25T00:55:27;3.53;;;1.50;;
45620;SDS011;31345;51.522;10.702;2024-03-25T00:58:02;4.40;;;1.33;;
45620;SDS011;31345;51.522;10.702;2024-03-25T01:00:28;3.27;;;1.10;;
45620;SDS011;31345;51.522;10.702;2024-03-25T01:02:56;2.40;;;1.27;;
45620;SDS011;31345;51.522;10.702;2024-03-25T01:05:28;2.87;;;1.37;;
45620;SDS011;31345;51.522;10.702;2024-03-25T01:07:56;3.37;;;1.80;;
45620;SDS011;31345;51.522;10.702;2024-03-25T01:10:27;1.87;;;1.20;;
45620;SDS011;31345;51.522;10.702;2024-03-25T01:12:54;3.37;;;1.30;;
45620;SDS011;31345;51.522;10.702;2024-03-25T01:15:24;5.27;;;1.80;;
45620;SDS011;31345;51.522;10.702;2024-03-25T01:17:57;3.17;;;1.70;;
45620;SDS011;31345;51.522;10.702;2024-03-25T01:20:29;4.70;;;1.90;;
45620;SDS011;31345;51.522;10.702;2024-03-25T01:23:01;3.80;;;1.70;;
45620;SDS011;31345;51.522;10.702;2024-03-25T01:25:27;4.03;;;2.17;;
45620;SDS011;31345;51.522;10.702;2024-03-25T01:28:00;3.03;;;1.70;;
45620;SDS011;31345;51.522;10.702;2024-03-25T01:30:29;5.27;;;2.17;;
45620;SDS011;31345;51.522;10.702;2024-03-25T01:32:56;4.63;;;2.00;;
45620;SDS011;31345;51.522;10.702;2024-03-25T01:35:28;7.23;;;2.17;;
45620;SDS011;31345;51.522;10.702;2024-03-25T01:37:55;5.40;;;2.80;;
45620;SDS011;31345;51.522;10.702;2024-03-25T01:40:27;9.57;;;3.47;;
45620;SDS011;31345;51.522;10.702;2024-03-25T01:42:55;7.03;;;2.60;;
45620;SDS011;31345;51.522;10.702;2024-03-25T01:45:22;10.87;;;2.53;;
45620;SDS011;31345;51.522;10.702;2024-03-25T01:47:56;9.03;;;3.37;;
45620;SDS011;31345;51.522;10.702;2024-03-25T01:50:23;6.23;;;3.00;;
45620;SDS011;31345;51.522;10.702;2024-03-25T01:52:57;6.77;;;2.67;;
45620;SDS011;31345;51.522;10.702;2024-03-25T01:55:26;4.70;;;2.50;;
45620;SDS011;31345;51.522;10.702;2024-03-25T01:58:00;7.73;;;2.60;;
45620;SDS011;31345;51.522;10.702;2024-03-25T02:00:27;4.23;;;2.40;;
45620;SDS011;31345;51.522;10.702;2024-03-25T02:03:01;6.23;;;2.73;;
45620;SDS011;31345;51.522;10.702;2024-03-25T02:05:28;6.03;;;2.27;;
45620;SDS011;31345;51.522;10.702;2024-03-25T02:08:01;9.43;;;2.57;;
45620;SDS011;31345;51.522;10.702;2024-03-25T02:10:29;5.67;;;2.30;;
45620;SDS011;31345;51.522;10.702;2024-03-25T02:13:02;5.33;;;2.00;;
45620;SDS011;31345;51.522;10.702;2024-03-25T02:15:33;4.47;;;2.10;;
45620;SDS011;31345;51.522;10.702;2024-03-25T02:18:09;4.00;;;2.03;;
45620;SDS011;31345;51.522;10.702;2024-03-25T02:20:40;5.27;;;2.00;;
45620;SDS011;31345;51.522;10.702;2024-03-25T02:23:13;8.63;;;2.67;;
45620;SDS011;31345;51.522;10.702;2024-03-25T02:25:49;3.40;;;2.10;;
45620;SDS011;31345;51.522;10.702;2024-03-25T02:28:21;4.23;;;1.80;;
45620;SDS011;31345;51.522;10.702;2024-03-25T02:30:53;5.73;;;2.10;;
45620;SDS011;31345;51.522;10.702;2024-03-25T02:33:21;4.90;;;2.17;;
45620;SDS011;31345;51.522;10.702;2024-03-25T02:35:47;4.90;;;2.10;;
45620;SDS011;31345;51.522;10.702;2024-03-25T02:38:15;5.70;;;1.63;;
45620;SDS011;31345;51.522;10.702;2024-03-25T02:40:44;4.37;;;2.27;;
45620;SDS011;31345;51.522;10.702;2024-03-25T02:43:18;4.60;;;1.70;;
45620;SDS011;31345;51.522;10.702;2024-03-25T02:45:52;4.30;;;1.97;;
45620;SDS011;31345;51.522;10.702;2024-03-25T02:48:24;2.73;;;1.63;;
45620;SDS011;31345;51.522;10.702;2024-03-25T02:50:51;7.83;;;1.50;;
45620;SDS011;31345;51.522;10.702;2024-03-25T02:53:23;3.80;;;1.93;;
45620;SDS011;31345;51.522;10.702;2024-03-25T02:55:55;3.93;;;1.57;;
45620;SDS011;31345;51.522;10.702;2024-03-25T02:58:29;4.40;;;1.70;;
45620;SDS011;31345;51.522;10.702;2024-03-25T03:00:55;5.60;;;2.00;;
45620;SDS011;31345;51.522;10.702;2024-03-25T03:03:28;3.67;;;2.00;;
45620;SDS011;31345;51.522;10.702;2024-03-25T03:05:54;4.60;;;1.77;;
45620;SDS011;31345;51.522;10.702;2024-03-25T03:08:22;4.63;;;1.97;;
45620;SDS011;31345;51.522;10.702;2024-03-25T03:10:49;5.17;;;2.50;;
45620;SDS011;31345;51.522;10.702;2024-03-25T03:13:21;4.80;;;2.40;;
45620;SDS011;31345;51.522;10.702;2024-03-25T03:15:49;5.03;;;1.87;;
45620;SDS011;31345;51.522;10.702;2024-03-25T03:18:16;4.70;;;2.10;;
45620;SDS011;31345;51.522;10.702;2024-03-25T03:20:48;7.57;;;2.47;;
45620;SDS011;31345;51.522;10.702;2024-03-25T03:23:16;3.53;;;2.10;;
45620;SDS011;31345;51.522;10.702;2024-03-25T03:25:48;5.00;;;2.30;;
45620;SDS011;31345;51.522;10.702;2024-03-25T03:28:20;5.07;;;2.20;;
45620;SDS011;31345;51.522;10.702;2024-03-25T03:30:53;5.30;;;2.00;;
45620;SDS011;31345;51.522;10.702;2024-03-25T03:33:26;3.93;;;2.00;;
45620;SDS011;31345;51.522;10.702;2024-03-25T03:35:52;3.53;;;2.17;;
45620;SDS011;31345;51.522;10.702;2024-03-25T03:38:27;3.13;;;1.50;;
45620;SDS011;31345;51.522;10.702;2024-03-25T03:40:58;5.07;;;1.97;;
45620;SDS011;31345;51.522;10.702;2024-03-25T03:43:32;3.90;;;1.40;;
45620;SDS011;31345;51.522;10.702;2024-03-25T03:46:05;4.57;;;1.90;;
45620;SDS011;31345;51.522;10.702;2024-03-25T03:48:37;4.50;;;1.80;;
45620;SDS011;31345;51.522;10.702;2024-03-25T03:51:09;3.53;;;1.63;;
45620;SDS011;31345;51.522;10.702;2024-03-25T03:53:37;3.50;;;1.67;;
45620;SDS011;31345;51.522;10.702;2024-03-25T03:56:08;5.37;;;2.00;;
45620;SDS011;31345;51.522;10.702;2024-03-25T03:58:41;4.40;;;2.10;;
45620;SDS011;31345;51.522;10.702;2024-03-25T04:01:15;4.07;;;1.37;;
45620;SDS011;31345;51.522;10.702;2024-03-25T04:03:48;4.53;;;1.60;;
45620;SDS011;31345;51.522;10.702;2024-03-25T04:06:15;4.77;;;1.83;;
45620;SDS011;31345;51.522;10.702;2024-03-25T04:08:43;4.17;;;1.80;;
45620;SDS011;31345;51.522;10.702;2024-03-25T04:11:09;3.27;;;1.73;;
45620;SDS011;31345;51.522;10.702;2024-03-25T04:13:37;3.23;;;1.80;;
45620;SDS011;31345;51.522;10.702;2024-03-25T04:16:09;2.70;;;1.53;;
45620;SDS011;31345;51.522;10.702;2024-03-25T04:18:38;3.30;;;1.90;;
45620;SDS011;31345;51.522;10.702;2024-03-25T04:21:10;5.63;;;1.80;;
45620;SDS011;31345;51.522;10.702;2024-03-25T04:23:44;3.23;;;2.00;;
45620;SDS011;31345;51.522;10.702;2024-03-25T04:26:11;3.57;;;1.83;;
45620;SDS011;31345;51.522;10.702;2024-03-25T04:28:44;4.20;;;1.50;;
45620;SDS011;31345;51.522;10.702;2024-03-25T04:31:16;3.17;;;1.67;;
45620;SDS011;31345;51.522;10.702;2024-03-25T04:33:50;6.03;;;2.00;;
45620;SDS011;31345;51.522;10.702;2024-03-25T04:36:16;6.13;;;2.20;;
45620;SDS011;31345;51.522;10.702;2024-03-25T04:38:48;6.90;;;2.47;;
45620;SDS011;31345;51.522;10.702;2024-03-25T04:41:16;6.47;;;2.93;;
45620;SDS011;31345;51.522;10.702;2024-03-25T04:43:47;6.70;;;2.57;;
45620;SDS011;31345;51.522;10.702;2024-03-25T04:46:19;7.07;;;3.07;;
45620;SDS011;31345;51.522;10.702;2024-03-25T04:48:51;8.53;;;3.50;;
45620;SDS011;31345;51.522;10.702;2024-03-25T04:51:18;7.63;;;3.23;;
45620;SDS011;31345;51.522;10.702;2024-03-25T04:53:49;10.13;;;2.93;;
45620;SDS011;31345;51.522;10.702;2024-03-25T04:56:16;9.73;;;2.93;;
45620;SDS011;31345;51.522;10.702;2024-03-25T04:58:48;7.37;;;3.20;;
45620;SDS011;31345;51.522;10.702;2024-03-25T05:01:19;6.83;;;3.20;;
45620;SDS011;31345;51.522;10.702;2024-03-25T05:03:53;10.23;;;2.97;;
45620;SDS011;31345;51.522;10.702;2024-03-25T05:06:19;7.57;;;2.92;;
45620;SDS011;31345;51.522;10.702;2024-03-25T05:08:51;11.30;;;3.40;;
45620;SDS011;31345;51.522;10.702;2024-03-25T05:11:22;11.30;;;3.60;;
45620;SDS011;31345;51.522;10.702;2024-03-25T05:13:54;9.87;;;2.93;;
45620;SDS011;31345;51.522;10.702;2024-03-25T05:16:26;11.30;;;3.37;;
45620;SDS011;31345;51.522;10.702;2024-03-25T05:18:59;6.03;;;2.90;;
45620;SDS011;31345;51.522;10.702;2024-03-25T05:21:30;5.63;;;3.30;;
45620;SDS011;31345;51.522;10.702;2024-03-25T05:23:57;6.63;;;2.80;;
45620;SDS011;31345;51.522;10.702;2024-03-25T05:26:24;9.77;;;3.50;;
45620;SDS011;31345;51.522;10.702;2024-03-25T05:28:54;9.93;;;3.50;;
45620;SDS011;31345;51.522;10.702;2024-03-25T05:31:20;8.30;;;3.30;;
45620;SDS011;31345;51.522;10.702;2024-03-25T05:33:52;12.03;;;4.17;;
45620;SDS011;31345;51.522;10.702;2024-03-25T05:36:20;10.77;;;3.23;;
45620;SDS011;31345;51.522;10.702;2024-03-25T05:38:47;10.30;;;3.77;;
45620;SDS011;31345;51.522;10.702;2024-03-25T05:41:18;13.17;;;2.83;;
45620;SDS011;31345;51.522;10.702;2024-03-25T05:43:50;9.20;;;3.07;;
45620;SDS011;31345;51.522;10.702;2024-03-25T05:46:21;9.17;;;3.17;;
45620;SDS011;31345;51.522;10.702;2024-03-25T05:48:53;8.10;;;3.30;;
45620;SDS011;31345;51.522;10.702;2024-03-25T05:51:26;4.87;;;2.70;;
45620;SDS011;31345;51.522;10.702;2024-03-25T05:53:57;7.47;;;2.97;;
45620;SDS011;31345;51.522;10.702;2024-03-25T05:56:29;7.33;;;3.30;;
45620;SDS011;31345;51.522;10.702;2024-03-25T05:59:01;7.53;;;3.13;;
45620;SDS011;31345;51.522;10.702;2024-03-25T06:01:33;6.47;;;2.90;;
45620;SDS011;31345;51.522;10.702;2024-03-25T06:04:04;8.30;;;3.07;;
45620;SDS011;31345;51.522;10.702;2024-03-25T06:06:38;8.90;;;2.83;;
45620;SDS011;31345;51.522;10.702;2024-03-25T06:09:10;8.80;;;3.03;;
45620;SDS011;31345;51.522;10.702;2024-03-25T06:11:41;9.07;;;3.00;;
45620;SDS011;31345;51.522;10.702;2024-03-25T06:14:13;7.90;;;2.83;;
45620;SDS011;31345;51.522;10.702;2024-03-25T06:16:39;10.53;;;2.90;;
45620;SDS011;31345;51.522;10.702;2024-03-25T06:19:11;7.80;;;3.03;;
45620;SDS011;31345;51.522;10.702;2024-03-25T06:21:44;7.93;;;3.07;;
45620;SDS011;31345;51.522;10.702;2024-03-25T06:24:12;7.87;;;3.77;;
45620;SDS011;31345;51.522;10.702;2024-03-25T06:26:43;10.07;;;2.83;;
45620;SDS011;31345;51.522;10.702;2024-03-25T06:29:15;6.80;;;2.90;;
45620;SDS011;31345;51.522;10.702;2024-03-25T06:31:46;9.37;;;2.70;;
45620;SDS011;31345;51.522;10.702;2024-03-25T06:34:36;9.07;;;2.80;;
45620;SDS011;31345;51.522;10.702;2024-03-25T06:37:09;12.83;;;2.80;;
45620;SDS011;31345;51.522;10.702;2024-03-25T06:39:41;11.20;;;3.13;;
45620;SDS011;31345;51.522;10.702;2024-03-25T06:42:12;9.43;;;2.73;;
45620;SDS011;31345;51.522;10.702;2024-03-25T06:44:39;8.47;;;2.97;;
45620;SDS011;31345;51.522;10.702;2024-03-25T06:47:10;7.60;;;2.90;;
45620;SDS011;31345;51.522;10.702;2024-03-25T06:49:42;7.23;;;2.37;;
45620;SDS011;31345;51.522;10.702;2024-03-25T06:52:10;7.20;;;2.33;;
45620;SDS011;31345;51.522;10.702;2024-03-25T06:54:37;7.27;;;2.67;;
45620;SDS011;31345;51.522;10.702;2024-03-25T06:57:03;7.67;;;2.80;;
45620;SDS011;31345;51.522;10.702;2024-03-25T06:59:35;5.97;;;2.95;;
45620;SDS011;31345;51.522;10.702;2024-03-25T07:02:07;5.20;;;2.60;;
45620;SDS011;31345;51.522;10.702;2024-03-25T07:04:38;6.67;;;2.60;;
45620;SDS011;31345;51.522;10.702;2024-03-25T07:07:05;6.77;;;2.00;;
45620;SDS011;31345;51.522;10.702;2024-03-25T07:09:39;5.15;;;2.40;;
45620;SDS011;31345;51.522;10.702;2024-03-25T07:12:06;7.45;;;2.38;;
45620;SDS011;31345;51.522;10.702;2024-03-25T07:14:38;6.45;;;2.63;;
45620;SDS011;31345;51.522;10.702;2024-03-25T07:17:09;10.60;;;3.20;;
45620;SDS011;31345;51.522;10.702;2024-03-25T07:19:41;6.97;;;2.67;;
45620;SDS011;31345;51.522;10.702;2024-03-25T07:22:13;12.52;;;3.05;;
45620;SDS011;31345;51.522;10.702;2024-03-25T07:24:46;11.20;;;3.15;;
45620;SDS011;31345;51.522;10.702;2024-03-25T07:27:13;9.27;;;2.40;;
45620;SDS011;31345;51.522;10.702;2024-03-25T07:29:44;9.50;;;2.40;;
45620;SDS011;31345;51.522;10.702;2024-03-25T07:32:16;7.07;;;2.28;;
45620;SDS011;31345;51.522;10.702;2024-03-25T07:34:47;7.22;;;2.53;;
45620;SDS011;31345;51.522;10.702;2024-03-25T07:37:19;8.37;;;2.90;;
45620;SDS011;31345;51.522;10.702;2024-03-25T07:39:52;6.70;;;2.38;;
45620;SDS011;31345;51.522;10.702;2024-03-25T07:42:18;8.18;;;2.85;;
45620;SDS011;31345;51.522;10.702;2024-03-25T07:44:50;7.40;;;2.20;;
45620;SDS011;31345;51.522;10.702;2024-03-25T07:47:22;11.63;;;3.08;;
45620;SDS011;31345;51.522;10.702;2024-03-25T07:49:53;4.00;;;2.22;;
45620;SDS011;31345;51.522;10.702;2024-03-25T07:52:25;10.38;;;2.33;;
45620;SDS011;31345;51.522;10.702;2024-03-25T07:54:58;7.43;;;2.33;;
45620;SDS011;31345;51.522;10.702;2024-03-25T07:57:29;8.20;;;2.45;;
45620;SDS011;31345;51.522;10.702;2024-03-25T08:00:01;8.52;;;2.67;;
45620;SDS011;31345;51.522;10.702;2024-03-25T08:02:43;5.95;;;2.42;;
45620;SDS011;31345;51.522;10.702;2024-03-25T08:05:15;8.70;;;3.10;;
45620;SDS011;31345;51.522;10.702;2024-03-25T08:07:46;8.95;;;2.35;;
45620;SDS011;31345;51.522;10.702;2024-03-25T08:10:19;8.27;;;2.67;;
45620;SDS011;31345;51.522;10.702;2024-03-25T08:12:51;6.03;;;2.38;;
45620;SDS011;31345;51.522;10.702;2024-03-25T08:15:22;10.55;;;3.05;;
45620;SDS011;31345;51.522;10.702;2024-03-25T08:17:54;7.03;;;2.83;;
45620;SDS011;31345;51.522;10.702;2024-03-25T08:20:26;12.50;;;2.80;;
45620;SDS011;31345;51.522;10.702;2024-03-25T08:22:57;8.85;;;2.72;;
45620;SDS011;31345;51.522;10.702;2024-03-25T08:25:25;7.18;;;2.80;;
45620;SDS011;31345;51.522;10.702;2024-03-25T08:27:56;9.63;;;2.80;;
45620;SDS011;31345;51.522;10.702;2024-03-25T08:30:28;8.48;;;2.88;;
45620;SDS011;31345;51.522;10.702;2024-03-25T08:32:55;7.68;;;3.00;;
45620;SDS011;31345;51.522;10.702;2024-03-25T08:35:26;10.57;;;3.85;;
45620;SDS011;31345;51.522;10.702;2024-03-25T08:37:58;6.78;;;2.85;;
45620;SDS011;31345;51.522;10.702;2024-03-25T08:40:26;9.50;;;2.85;;
45620;SDS011;31345;51.522;10.702;2024-03-25T08:42:58;6.88;;;2.78;;
45620;SDS011;31345;51.522;10.702;2024-03-25T08:45:29;9.35;;;4.03;;
45620;SDS011;31345;51.522;10.702;2024-03-25T08:48:01;6.65;;;2.40;;
45620;SDS011;31345;51.522;10.702;2024-03-25T08:50:33;6.50;;;2.50;;
45620;SDS011;31345;51.522;10.702;2024-03-25T08:53:04;7.20;;;2.00;;
45620;SDS011;31345;51.522;10.702;2024-03-25T08:55:37;8.00;;;2.42;;
45620;SDS011;31345;51.522;10.702;2024-03-25T08:58:09;7.63;;;2.70;;
45620;SDS011;31345;51.522;10.702;2024-03-25T09:00:40;4.15;;;1.98;;
45620;SDS011;31345;51.522;10.702;2024-03-25T09:03:12;8.07;;;2.42;;
45620;SDS011;31345;51.522;10.702;2024-03-25T09:05:44;7.72;;;2.47;;
45620;SDS011;31345;51.522;10.702;2024-03-25T09:08:15;6.47;;;1.90;;
45620;SDS011;31345;51.522;10.702;2024-03-25T09:10:48;4.85;;;2.00;;
45620;SDS011;31345;51.522;10.702;2024-03-25T09:13:35;10.90;;;2.60;;
45620;SDS011;31345;51.522;10.702;2024-03-25T09:16:01;6.53;;;2.45;;
45620;SDS011;31345;51.522;10.702;2024-03-25T09:18:33;7.15;;;2.28;;
45620;SDS011;31345;51.522;10.702;2024-03-25T09:21:04;10.95;;;3.50;;
45620;SDS011;31345;51.522;10.702;2024-03-25T09:23:37;7.72;;;2.35;;
45620;SDS011;31345;51.522;10.702;2024-03-25T09:26:10;8.35;;;2.25;;
45620;SDS011;31345;51.522;10.702;2024-03-25T09:28:42;7.05;;;2.47;;
45620;SDS011;31345;51.522;10.702;2024-03-25T09:31:14;7.88;;;2.40;;
45620;SDS011;31345;51.522;10.702;2024-03-25T09:33:45;8.73;;;2.90;;
45620;SDS011;31345;51.522;10.702;2024-03-25T09:36:17;6.68;;;3.25;;
45620;SDS011;31345;51.522;10.702;2024-03-25T09:38:48;10.60;;;2.88;;
45620;SDS011;31345;51.522;10.702;2024-03-25T09:41:22;8.52;;;3.20;;
45620;SDS011;31345;51.522;10.702;2024-03-25T09:43:54;20.13;;;3.97;;
45620;SDS011;31345;51.522;10.702;2024-03-25T09:46:26;5.47;;;2.47;;
45620;SDS011;31345;51.522;10.702;2024-03-25T09:48:58;7.13;;;2.55;;
45620;SDS011;31345;51.522;10.702;2024-03-25T09:51:29;6.82;;;2.45;;
45620;SDS011;31345;51.522;10.702;2024-03-25T09:54:01;9.70;;;2.72;;
45620;SDS011;31345;51.522;10.702;2024-03-25T09:56:34;4.25;;;1.90;;
45620;SDS011;31345;51.522;10.702;2024-03-25T09:59:06;7.47;;;2.42;;
45620;SDS011;31345;51.522;10.702;2024-03-25T10:01:38;5.35;;;2.47;;
45620;SDS011;31345;51.522;10.702;2024-03-25T10:04:09;6.90;;;2.67;;
45620;SDS011;31345;51.522;10.702;2024-03-25T10:06:41;9.00;;;3.28;;
45620;SDS011;31345;51.522;10.702;2024-03-25T10:09:08;8.60;;;3.47;;
45620;SDS011;31345;51.522;10.702;2024-03-25T10:11:41;6.53;;;2.72;;
45620;SDS011;31345;51.522;10.702;2024-03-25T10:14:12;7.00;;;2.80;;
45620;SDS011;31345;51.522;10.702;2024-03-25T10:16:44;8.57;;;2.40;;
45620;SDS011;31345;51.522;10.702;2024-03-25T10:19:15;6.43;;;2.58;;
45620;SDS011;31345;51.522;10.702;2024-03-25T10:21:47;7.88;;;2.92;;
45620;SDS011;31345;51.522;10.702;2024-03-25T10:24:19;8.75;;;2.67;;
45620;SDS011;31345;51.522;10.702;2024-03-25T10:26:51;6.65;;;2.72;;
45620;SDS011;31345;51.522;10.702;2024-03-25T10:29:24;6.70;;;2.50;;
45620;SDS011;31345;51.522;10.702;2024-03-25T10:31:59;9.18;;;3.53;;
45620;SDS011;31345;51.522;10.702;2024-03-25T10:34:31;9.15;;;3.05;;
45620;SDS011;31345;51.522;10.702;2024-03-25T10:37:03;9.02;;;3.30;;
45620;SDS011;31345;51.522;10.702;2024-03-25T10:39:31;10.95;;;4.22;;
45620;SDS011;31345;51.522;10.702;2024-03-25T10:42:05;5.03;;;2.70;;
45620;SDS011;31345;51.522;10.702;2024-03-25T10:44:38;19.60;;;6.53;;
45620;SDS011;31345;51.522;10.702;2024-03-25T10:47:11;12.32;;;4.35;;
45620;SDS011;31345;51.522;10.702;2024-03-25T10:49:44;6.53;;;2.60;;
45620;SDS011;31345;51.522;10.702;2024-03-25T10:52:20;6.20;;;2.20;;
45620;SDS011;31345;51.522;10.702;2024-03-25T10:54:53;6.80;;;1.90;;
45620;SDS011;31345;51.522;10.702;2024-03-25T10:57:27;7.43;;;2.05;;
45620;SDS011;31345;51.522;10.702;2024-03-25T10:59:59;7.95;;;2.67;;
45620;SDS011;31345;51.522;10.702;2024-03-25T11:02:34;8.75;;;2.25;;
45620;SDS011;31345;51.522;10.702;2024-03-25T11:05:06;5.32;;;1.77;;
45620;SDS011;31345;51.522;10.702;2024-03-25T11:07:34;7.40;;;2.42;;
45620;SDS011;31345;51.522;10.702;2024-03-25T11:10:06;5.07;;;2.47;;
45620;SDS011;31345;51.522;10.702;2024-03-25T11:12:40;7.22;;;2.55;;
45620;SDS011;31345;51.522;10.702;2024-03-25T11:15:12;5.88;;;2.25;;
45620;SDS011;31345;51.522;10.702;2024-03-25T11:17:48;8.50;;;1.92;;
45620;SDS011;31345;51.522;10.702;2024-03-25T11:20:19;5.55;;;2.85;;
45620;SDS011;31345;51.522;10.702;2024-03-25T11:22:51;9.45;;;3.70;;
45620;SDS011;31345;51.522;10.702;2024-03-25T11:25:24;10.00;;;3.50;;
45620;SDS011;31345;51.522;10.702;2024-03-25T11:27:57;7.80;;;3.00;;
45620;SDS011;31345;51.522;10.702;2024-03-25T11:30:28;7.55;;;2.88;;
45620;SDS011;31345;51.522;10.702;2024-03-25T11:33:01;6.65;;;2.40;;
45620;SDS011;31345;51.522;10.702;2024-03-25T11:35:36;6.55;;;2.67;;
45620;SDS011;31345;51.522;10.702;2024-03-25T11:38:08;9.20;;;2.00;;
45620;SDS011;31345;51.522;10.702;2024-03-25T11:40:41;7.10;;;2.17;;
45620;SDS011;31345;51.522;10.702;2024-03-25T11:43:19;9.00;;;2.20;;
45620;SDS011;31345;51.522;10.702;2024-03-25T11:45:53;9.48;;;2.58;;
45620;SDS011;31345;51.522;10.702;2024-03-25T11:48:25;8.90;;;2.10;;
45620;SDS011;31345;51.522;10.702;2024-03-25T11:50:57;8.10;;;2.15;;
45620;SDS011;31345;51.522;10.702;2024-03-25T11:53:29;6.63;;;2.45;;
45620;SDS011;31345;51.522;10.702;2024-03-25T11:56:01;9.57;;;2.38;;
45620;SDS011;31345;51.522;10.702;2024-03-25T11:58:34;8.80;;;2.88;;
45620;SDS011;31345;51.522;10.702;2024-03-25T12:01:05;9.68;;;2.90;;
45620;SDS011;31345;51.522;10.702;2024-03-25T12:03:37;5.22;;;1.73;;
45620;SDS011;31345;51.522;10.702;2024-03-25T12:06:08;7.75;;;2.25;;
45620;SDS011;31345;51.522;10.702;2024-03-25T12:08:40;7.68;;;2.20;;
45620;SDS011;31345;51.522;10.702;2024-03-25T12:11:12;5.93;;;2.25;;
45620;SDS011;31345;51.522;10.702;2024-03-25T12:13:52;13.00;;;3.67;;
45620;SDS011;31345;51.522;10.702;2024-03-25T12:16:23;5.95;;;2.60;;
45620;SDS011;31345;51.522;10.702;2024-03-25T12:18:55;7.80;;;2.53;;
45620;SDS011;31345;51.522;10.702;2024-03-25T12:21:22;6.97;;;2.53;;
45620;SDS011;31345;51.522;10.702;2024-03-25T12:23:48;5.95;;;1.90;;
45620;SDS011;31345;51.522;10.702;2024-03-25T12:26:20;7.05;;;2.58;;
45620;SDS011;31345;51.522;10.702;2024-03-25T12:28:53;10.65;;;3.92;;
45620;SDS011;31345;51.522;10.702;2024-03-25T12:31:24;3.70;;;1.88;;
45620;SDS011;31345;51.522;10.702;2024-03-25T12:33:56;6.00;;;2.10;;
45620;SDS011;31345;51.522;10.702;2024-03-25T12:36:28;7.78;;;2.28;;
45620;SDS011;31345;51.522;10.702;2024-03-25T12:38:55;6.22;;;2.17;;
45620;SDS011;31345;51.522;10.702;2024-03-25T12:41:27;6.88;;;2.42;;
45620;SDS011;31345;51.522;10.702;2024-03-25T12:44:00;7.65;;;1.60;;
45620;SDS011;31345;51.522;10.702;2024-03-25T12:46:31;5.35;;;1.88;;
45620;SDS011;31345;51.522;10.702;2024-03-25T12:49:03;5.43;;;2.05;;
45620;SDS011;31345;51.522;10.702;2024-03-25T12:51:34;5.45;;;2.15;;
45620;SDS011;31345;51.522;10.702;2024-03-25T12:54:06;8.38;;;2.05;;
45620;SDS011;31345;51.522;10.702;2024-03-25T12:56:41;7.05;;;1.80;;
45620;SDS011;31345;51.522;10.702;2024-03-25T12:59:14;7.55;;;1.90;;
45620;SDS011;31345;51.522;10.702;2024-03-25T13:01:45;4.75;;;2.28;;
45620;SDS011;31345;51.522;10.702;2024-03-25T13:04:17;9.02;;;2.00;;
45620;SDS011;31345;51.522;10.702;2024-03-25T13:06:49;4.10;;;1.50;;
45620;SDS011;31345;51.522;10.702;2024-03-25T13:09:20;8.38;;;1.95;;
45620;SDS011;31345;51.522;10.702;2024-03-25T13:11:52;5.13;;;1.75;;
45620;SDS011;31345;51.522;10.702;2024-03-25T13:14:25;6.15;;;1.98;;
45620;SDS011;31345;51.522;10.702;2024-03-25T13:16:57;5.93;;;1.92;;
45620;SDS011;31345;51.522;10.702;2024-03-25T13:19:28;4.65;;;1.80;;
45620;SDS011;31345;51.522;10.702;2024-03-25T13:22:00;7.53;;;1.90;;
45620;SDS011;31345;51.522;10.702;2024-03-25T13:24:31;6.88;;;1.77;;
45620;SDS011;31345;51.522;10.702;2024-03-25T13:27:03;5.53;;;2.20;;
45620;SDS011;31345;51.522;10.702;2024-03-25T13:29:36;4.97;;;1.90;;
45620;SDS011;31345;51.522;10.702;2024-03-25T13:32:03;8.02;;;1.65;;
45620;SDS011;31345;51.522;10.702;2024-03-25T13:34:35;5.55;;;1.80;;
45620;SDS011;31345;51.522;10.702;2024-03-25T13:37:06;7.03;;;1.98;;
45620;SDS011;31345;51.522;10.702;2024-03-25T13:39:38;11.60;;;2.20;;
45620;SDS011;31345;51.522;10.702;2024-03-25T13:42:09;4.75;;;2.00;;
45620;SDS011;31345;51.522;10.702;2024-03-25T13:44:37;8.52;;;1.70;;
45620;SDS011;31345;51.522;10.702;2024-03-25T13:47:09;3.20;;;1.27;;
45620;SDS011;31345;51.522;10.702;2024-03-25T13:49:41;4.50;;;1.63;;
45620;SDS011;31345;51.522;10.702;2024-03-25T13:52:15;5.85;;;2.03;;
45620;SDS011;31345;51.522;10.702;2024-03-25T13:54:46;6.60;;;1.98;;
45620;SDS011;31345;51.522;10.702;2024-03-25T13:57:18;5.07;;;1.85;;
45620;SDS011;31345;51.522;10.702;2024-03-25T13:59:51;4.90;;;1.58;;
45620;SDS011;31345;51.522;10.702;2024-03-25T14:02:23;4.70;;;2.03;;
45620;SDS011;31345;51.522;10.702;2024-03-25T14:04:49;5.95;;;1.88;;
45620;SDS011;31345;51.522;10.702;2024-03-25T14:07:21;5.47;;;1.85;;
45620;SDS011;31345;51.522;10.702;2024-03-25T14:09:52;5.63;;;1.77;;
45620;SDS011;31345;51.522;10.702;2024-03-25T14:12:24;7.25;;;2.15;;
45620;SDS011;31345;51.522;10.702;2024-03-25T14:14:52;4.40;;;1.92;;
45620;SDS011;31345;51.522;10.702;2024-03-25T14:17:23;5.65;;;1.98;;
45620;SDS011;31345;51.522;10.702;2024-03-25T14:19:55;5.72;;;2.00;;
45620;SDS011;31345;51.522;10.702;2024-03-25T14:22:27;4.60;;;1.70;;
45620;SDS011;31345;51.522;10.702;2024-03-25T14:24:59;3.40;;;1.70;;
45620;SDS011;31345;51.522;10.702;2024-03-25T14:27:31;4.35;;;2.00;;
45620;SDS011;31345;51.522;10.702;2024-03-25T14:30:05;9.20;;;2.10;;
45620;SDS011;31345;51.522;10.702;2024-03-25T14:32:37;7.25;;;2.35;;
45620;SDS011;31345;51.522;10.702;2024-03-25T14:35:09;6.18;;;2.30;;
45620;SDS011;31345;51.522;10.702;2024-03-25T14:37:41;4.28;;;2.25;;
45620;SDS011;31345;51.522;10.702;2024-03-25T14:40:12;5.00;;;2.08;;
45620;SDS011;31345;51.522;10.702;2024-03-25T14:42:44;5.65;;;2.10;;
45620;SDS011;31345;51.522;10.702;2024-03-25T14:45:17;8.60;;;2.08;;
45620;SDS011;31345;51.522;10.702;2024-03-25T14:47:48;7.35;;;2.38;;
45620;SDS011;31345;51.522;10.702;2024-03-25T14:50:20;7.63;;;2.83;;
45620;SDS011;31345;51.522;10.702;2024-03-25T14:52:51;9.40;;;2.40;;
45620;SDS011;31345;51.522;10.702;2024-03-25T14:55:23;7.72;;;2.40;;
45620;SDS011;31345;51.522;10.702;2024-03-25T14:57:55;7.57;;;2.40;;